sensor_id;sensor_type;location;lat;lon;timestamp;temperature;humidity
36416;DHT22;22447;44.530;18.620;2022-12-18T00:00:58;3.70;99.90
36416;DHT22;22447;44.530;18.620;2022-12-18T00:03:25;3.70;99.90
36416;DHT22;22447;44.530;18.620;2022-12-18T00:05:52;3.70;99.90
36416;DHT22;22447;44.530;18.620;2022-12-18T00:08:19;3.70;99.90
36416;DHT22;22447;44.530;18.620;2022-12-18T00:10:45;3.70;99.90
36416;DHT22;22447;44.530;18.620;2022-12-18T00:13:12;3.70;99.90
36416;DHT22;22447;44.530;18.620;2022-12-18T00:15:38;3.70;99.90
36416;DHT22;22447;44.530;18.620;2022-12-18T00:18:05;3.70;99.90
36416;DHT22;22447;44.530;18.620;2022-12-18T00:20:35;3.70;99.90
36416;DHT22;22447;44.530;18.620;2022-12-18T00:23:01;3.60;99.90
36416;DHT22;22447;44.530;18.620;2022-12-18T00:25:27;3.70;99.90
36416;DHT22;22447;44.530;18.620;2022-12-18T00:27:53;3.80;99.90
36416;DHT22;22447;44.530;18.620;2022-12-18T00:30:19;3.80;99.90
36416;DHT22;22447;44.530;18.620;2022-12-18T00:32:45;3.70;99.90
36416;DHT22;22447;44.530;18.620;2022-12-18T00:35:10;3.70;99.90
36416;DHT22;22447;44.530;18.620;2022-12-18T00:37:36;3.60;99.90
36416;DHT22;22447;44.530;18.620;2022-12-18T00:40:04;3.60;99.90
36416;DHT22;22447;44.530;18.620;2022-12-18T00:42:30;3.60;99.90
36416;DHT22;22447;44.530;18.620;2022-12-18T00:45:14;3.60;99.90
36416;DHT22;22447;44.530;18.620;2022-12-18T00:47:40;3.50;99.90
36416;DHT22;22447;44.530;18.620;2022-12-18T00:50:07;3.40;99.90
36416;DHT22;22447;44.530;18.620;2022-12-18T00:52:33;3.40;99.90
36416;DHT22;22447;44.530;18.620;2022-12-18T00:54:59;3.30;99.90
36416;DHT22;22447;44.530;18.620;2022-12-18T00:57:25;3.20;99.90
36416;DHT22;22447;44.530;18.620;2022-12-18T00:59:51;3.30;99.90
36416;DHT22;22447;44.530;18.620;2022-12-18T01:02:17;3.30;99.90
36416;DHT22;22447;44.530;18.620;2022-12-18T01:04:43;3.10;99.90
36416;DHT22;22447;44.530;18.620;2022-12-18T01:07:09;3.10;99.90
36416;DHT22;22447;44.530;18.620;2022-12-18T01:09:35;3.10;99.90
36416;DHT22;22447;44.530;18.620;2022-12-18T01:12:01;3.00;99.90
36416;DHT22;22447;44.530;18.620;2022-12-18T01:14:27;3.00;99.90
36416;DHT22;22447;44.530;18.620;2022-12-18T01:16:53;3.10;99.90
36416;DHT22;22447;44.530;18.620;2022-12-18T01:19:18;3.10;99.90
36416;DHT22;22447;44.530;18.620;2022-12-18T01:21:46;3.10;99.90
36416;DHT22;22447;44.530;18.620;2022-12-18T01:24:12;3.10;99.90
36416;DHT22;22447;44.530;18.620;2022-12-18T01:26:38;3.10;99.90
36416;DHT22;22447;44.530;18.620;2022-12-18T01:29:04;3.10;99.90
36416;DHT22;22447;44.530;18.620;2022-12-18T01:31:32;3.10;99.90
36416;DHT22;22447;44.530;18.620;2022-12-18T01:34:01;3.10;99.90
36416;DHT22;22447;44.530;18.620;2022-12-18T01:36:30;3.10;99.90
36416;DHT22;22447;44.530;18.620;2022-12-18T01:38:58;3.20;99.90
36416;DHT22;22447;44.530;18.620;2022-12-18T01:41:27;3.10;99.90
36416;DHT22;22447;44.530;18.620;2022-12-18T01:49:48;3.00;99.90
36416;DHT22;22447;44.530;18.620;2022-12-18T01:52:14;3.00;99.90
36416;DHT22;22447;44.530;18.620;2022-12-18T01:54:41;2.90;99.90
36416;DHT22;22447;44.530;18.620;2022-12-18T01:57:07;2.90;99.90
36416;DHT22;22447;44.530;18.620;2022-12-18T01:59:33;2.90;99.90
36416;DHT22;22447;44.530;18.620;2022-12-18T02:02:02;2.80;99.90
36416;DHT22;22447;44.530;18.620;2022-12-18T02:04:29;2.80;99.90
36416;DHT22;22447;44.530;18.620;2022-12-18T02:07:10;2.80;99.90
36416;DHT22;22447;44.530;18.620;2022-12-18T02:09:47;2.80;99.90
36416;DHT22;22447;44.530;18.620;2022-12-18T02:15:05;2.80;99.90
36416;DHT22;22447;44.530;18.620;2022-12-18T02:20:40;2.70;99.90
36416;DHT22;22447;44.530;18.620;2022-12-18T02:28:42;2.30;99.90
36416;DHT22;22447;44.530;18.620;2022-12-18T02:31:14;2.40;99.90
36416;DHT22;22447;44.530;18.620;2022-12-18T02:33:41;2.40;99.90
36416;DHT22;22447;44.530;18.620;2022-12-18T02:36:09;2.40;99.90
36416;DHT22;22447;44.530;18.620;2022-12-18T02:38:37;2.50;99.90
36416;DHT22;22447;44.530;18.620;2022-12-18T02:41:11;2.60;99.90
36416;DHT22;22447;44.530;18.620;2022-12-18T02:43:38;2.60;99.90
36416;DHT22;22447;44.530;18.620;2022-12-18T02:46:42;2.60;99.90
36416;DHT22;22447;44.530;18.620;2022-12-18T02:55:38;2.40;99.90
36416;DHT22;22447;44.530;18.620;2022-12-18T03:01:09;2.40;99.90
36416;DHT22;22447;44.530;18.620;2022-12-18T03:06:23;2.40;99.90
36416;DHT22;22447;44.530;18.620;2022-12-18T03:08:59;2.40;99.90
36416;DHT22;22447;44.530;18.620;2022-12-18T03:11:32;2.40;99.90
36416;DHT22;22447;44.530;18.620;2022-12-18T03:14:20;2.30;99.90
36416;DHT22;22447;44.530;18.620;2022-12-18T03:16:54;2.30;99.90
36416;DHT22;22447;44.530;18.620;2022-12-18T03:19:27;2.30;99.90
36416;DHT22;22447;44.530;18.620;2022-12-18T03:21:59;2.30;99.90
36416;DHT22;22447;44.530;18.620;2022-12-18T03:24:31;2.40;99.90
36416;DHT22;22447;44.530;18.620;2022-12-18T03:27:04;2.50;99.90
36416;DHT22;22447;44.530;18.620;2022-12-18T03:30:06;2.40;99.90
36416;DHT22;22447;44.530;18.620;2022-12-18T03:32:49;2.30;99.90
36416;DHT22;22447;44.530;18.620;2022-12-18T03:35:16;2.40;99.90
36416;DHT22;22447;44.530;18.620;2022-12-18T03:37:44;2.40;99.90
36416;DHT22;22447;44.530;18.620;2022-12-18T03:40:10;2.40;99.90
36416;DHT22;22447;44.530;18.620;2022-12-18T03:42:50;2.40;99.90
36416;DHT22;22447;44.530;18.620;2022-12-18T03:45:34;2.40;99.90
36416;DHT22;22447;44.530;18.620;2022-12-18T03:48:19;2.50;99.90
36416;DHT22;22447;44.530;18.620;2022-12-18T03:50:57;2.50;99.90
36416;DHT22;22447;44.530;18.620;2022-12-18T03:56:14;2.60;99.90
36416;DHT22;22447;44.530;18.620;2022-12-18T03:58:43;2.60;99.90
36416;DHT22;22447;44.530;18.620;2022-12-18T04:01:17;2.50;99.90
36416;DHT22;22447;44.530;18.620;2022-12-18T04:03:46;2.60;99.90
36416;DHT22;22447;44.530;18.620;2022-12-18T04:06:14;2.50;99.90
36416;DHT22;22447;44.530;18.620;2022-12-18T04:08:42;2.50;99.90
36416;DHT22;22447;44.530;18.620;2022-12-18T04:11:11;2.50;99.90
36416;DHT22;22447;44.530;18.620;2022-12-18T04:13:38;2.60;99.90
36416;DHT22;22447;44.530;18.620;2022-12-18T04:16:14;2.70;99.90
36416;DHT22;22447;44.530;18.620;2022-12-18T04:18:42;2.70;99.90
36416;DHT22;22447;44.530;18.620;2022-12-18T04:21:09;2.80;99.90
36416;DHT22;22447;44.530;18.620;2022-12-18T04:23:36;2.90;99.90
36416;DHT22;22447;44.530;18.620;2022-12-18T04:26:02;2.80;99.90
36416;DHT22;22447;44.530;18.620;2022-12-18T04:29:03;2.70;99.90
36416;DHT22;22447;44.530;18.620;2022-12-18T04:31:29;2.80;99.90
36416;DHT22;22447;44.530;18.620;2022-12-18T04:33:56;2.80;99.90
36416;DHT22;22447;44.530;18.620;2022-12-18T04:36:22;2.80;99.90
36416;DHT22;22447;44.530;18.620;2022-12-18T04:38:48;2.80;99.90
36416;DHT22;22447;44.530;18.620;2022-12-18T04:41:17;2.90;99.90
36416;DHT22;22447;44.530;18.620;2022-12-18T04:43:46;2.80;99.90
36416;DHT22;22447;44.530;18.620;2022-12-18T04:46:12;3.00;99.90
36416;DHT22;22447;44.530;18.620;2022-12-18T04:48:38;2.90;99.90
36416;DHT22;22447;44.530;18.620;2022-12-18T04:51:05;2.80;99.90
36416;DHT22;22447;44.530;18.620;2022-12-18T04:53:31;2.80;99.90
36416;DHT22;22447;44.530;18.620;2022-12-18T04:56:12;2.80;99.90
36416;DHT22;22447;44.530;18.620;2022-12-18T04:58:40;2.80;99.90
36416;DHT22;22447;44.530;18.620;2022-12-18T05:01:07;2.70;99.90
36416;DHT22;22447;44.530;18.620;2022-12-18T05:03:34;2.90;99.90
36416;DHT22;22447;44.530;18.620;2022-12-18T05:06:00;2.90;99.90
36416;DHT22;22447;44.530;18.620;2022-12-18T05:08:26;2.90;99.90
36416;DHT22;22447;44.530;18.620;2022-12-18T05:11:04;2.80;99.90
36416;DHT22;22447;44.530;18.620;2022-12-18T05:13:31;2.80;99.90
36416;DHT22;22447;44.530;18.620;2022-12-18T05:15:57;2.70;99.90
36416;DHT22;22447;44.530;18.620;2022-12-18T05:18:23;2.80;99.90
36416;DHT22;22447;44.530;18.620;2022-12-18T05:20:51;2.90;99.90
36416;DHT22;22447;44.530;18.620;2022-12-18T05:23:17;2.70;99.90
36416;DHT22;22447;44.530;18.620;2022-12-18T05:26:07;2.60;99.90
36416;DHT22;22447;44.530;18.620;2022-12-18T05:28:34;2.70;99.90
36416;DHT22;22447;44.530;18.620;2022-12-18T05:31:02;2.70;99.90
36416;DHT22;22447;44.530;18.620;2022-12-18T05:33:31;2.70;99.90
36416;DHT22;22447;44.530;18.620;2022-12-18T05:35:59;2.70;99.90
36416;DHT22;22447;44.530;18.620;2022-12-18T05:38:31;2.60;99.90
36416;DHT22;22447;44.530;18.620;2022-12-18T05:40:57;2.70;99.90
36416;DHT22;22447;44.530;18.620;2022-12-18T05:43:24;2.80;99.90
36416;DHT22;22447;44.530;18.620;2022-12-18T05:45:51;2.80;99.90
36416;DHT22;22447;44.530;18.620;2022-12-18T05:48:18;2.70;99.90
36416;DHT22;22447;44.530;18.620;2022-12-18T05:50:46;2.90;99.90
36416;DHT22;22447;44.530;18.620;2022-12-18T05:53:14;2.80;99.90
36416;DHT22;22447;44.530;18.620;2022-12-18T05:55:41;2.70;99.90
36416;DHT22;22447;44.530;18.620;2022-12-18T05:58:08;2.70;99.90
36416;DHT22;22447;44.530;18.620;2022-12-18T06:00:39;2.70;99.90
36416;DHT22;22447;44.530;18.620;2022-12-18T06:03:07;2.60;99.90
36416;DHT22;22447;44.530;18.620;2022-12-18T06:05:38;2.60;99.90
36416;DHT22;22447;44.530;18.620;2022-12-18T06:08:05;2.70;99.90
36416;DHT22;22447;44.530;18.620;2022-12-18T06:10:31;2.80;99.90
36416;DHT22;22447;44.530;18.620;2022-12-18T06:12:58;2.60;99.90
36416;DHT22;22447;44.530;18.620;2022-12-18T06:15:24;2.60;99.90
36416;DHT22;22447;44.530;18.620;2022-12-18T06:17:50;2.50;99.90
36416;DHT22;22447;44.530;18.620;2022-12-18T06:20:16;2.50;99.90
36416;DHT22;22447;44.530;18.620;2022-12-18T06:22:42;2.40;99.90
36416;DHT22;22447;44.530;18.620;2022-12-18T06:25:08;2.30;99.90
36416;DHT22;22447;44.530;18.620;2022-12-18T06:27:34;2.10;99.90
36416;DHT22;22447;44.530;18.620;2022-12-18T06:30:00;2.10;99.90
36416;DHT22;22447;44.530;18.620;2022-12-18T06:32:27;2.10;99.90
36416;DHT22;22447;44.530;18.620;2022-12-18T06:34:53;1.90;99.90
36416;DHT22;22447;44.530;18.620;2022-12-18T06:37:19;1.90;99.90
36416;DHT22;22447;44.530;18.620;2022-12-18T06:39:45;1.90;99.90
36416;DHT22;22447;44.530;18.620;2022-12-18T06:42:11;2.00;99.90
36416;DHT22;22447;44.530;18.620;2022-12-18T06:44:37;2.00;99.90
36416;DHT22;22447;44.530;18.620;2022-12-18T06:47:03;1.90;99.90
36416;DHT22;22447;44.530;18.620;2022-12-18T06:49:29;1.80;99.90
36416;DHT22;22447;44.530;18.620;2022-12-18T06:51:55;1.80;99.90
36416;DHT22;22447;44.530;18.620;2022-12-18T06:54:21;1.70;99.90
36416;DHT22;22447;44.530;18.620;2022-12-18T06:56:47;1.60;99.90
36416;DHT22;22447;44.530;18.620;2022-12-18T06:59:13;1.60;99.90
36416;DHT22;22447;44.530;18.620;2022-12-18T07:01:40;1.60;99.90
36416;DHT22;22447;44.530;18.620;2022-12-18T07:04:06;1.70;99.90
36416;DHT22;22447;44.530;18.620;2022-12-18T07:06:32;1.80;99.90
36416;DHT22;22447;44.530;18.620;2022-12-18T07:08:58;1.90;99.90
36416;DHT22;22447;44.530;18.620;2022-12-18T07:11:24;1.80;99.90
36416;DHT22;22447;44.530;18.620;2022-12-18T07:13:51;1.90;99.90
36416;DHT22;22447;44.530;18.620;2022-12-18T07:16:19;1.90;99.90
36416;DHT22;22447;44.530;18.620;2022-12-18T07:18:45;1.90;99.90
36416;DHT22;22447;44.530;18.620;2022-12-18T07:21:17;2.00;99.90
36416;DHT22;22447;44.530;18.620;2022-12-18T07:23:43;2.00;99.90
36416;DHT22;22447;44.530;18.620;2022-12-18T07:26:11;1.90;99.90
36416;DHT22;22447;44.530;18.620;2022-12-18T07:28:39;1.80;99.90
36416;DHT22;22447;44.530;18.620;2022-12-18T07:31:19;1.70;99.90
36416;DHT22;22447;44.530;18.620;2022-12-18T07:33:46;1.70;99.90
36416;DHT22;22447;44.530;18.620;2022-12-18T07:36:13;1.70;99.90
36416;DHT22;22447;44.530;18.620;2022-12-18T07:38:39;1.70;99.90
36416;DHT22;22447;44.530;18.620;2022-12-18T07:41:10;1.80;99.90
36416;DHT22;22447;44.530;18.620;2022-12-18T07:43:37;1.90;99.90
36416;DHT22;22447;44.530;18.620;2022-12-18T07:46:03;1.70;99.90
36416;DHT22;22447;44.530;18.620;2022-12-18T07:48:30;1.60;99.90
36416;DHT22;22447;44.530;18.620;2022-12-18T07:51:03;1.60;99.90
36416;DHT22;22447;44.530;18.620;2022-12-18T07:53:30;1.60;99.90
36416;DHT22;22447;44.530;18.620;2022-12-18T07:55:57;1.60;99.90
36416;DHT22;22447;44.530;18.620;2022-12-18T07:58:23;1.60;99.90
36416;DHT22;22447;44.530;18.620;2022-12-18T08:00:49;1.60;99.90
36416;DHT22;22447;44.530;18.620;2022-12-18T08:03:15;1.60;99.90
36416;DHT22;22447;44.530;18.620;2022-12-18T08:05:41;1.40;99.90
36416;DHT22;22447;44.530;18.620;2022-12-18T08:08:07;1.40;99.90
36416;DHT22;22447;44.530;18.620;2022-12-18T08:10:33;1.50;99.90
36416;DHT22;22447;44.530;18.620;2022-12-18T08:12:59;1.60;99.90
36416;DHT22;22447;44.530;18.620;2022-12-18T08:15:25;1.80;99.90
36416;DHT22;22447;44.530;18.620;2022-12-18T08:17:51;1.90;99.90
36416;DHT22;22447;44.530;18.620;2022-12-18T08:20:17;2.00;99.90
36416;DHT22;22447;44.530;18.620;2022-12-18T08:22:44;2.30;99.90
36416;DHT22;22447;44.530;18.620;2022-12-18T08:25:10;3.30;99.90
36416;DHT22;22447;44.530;18.620;2022-12-18T08:27:36;4.90;99.90
36416;DHT22;22447;44.530;18.620;2022-12-18T08:30:03;6.30;98.40
36416;DHT22;22447;44.530;18.620;2022-12-18T08:32:29;7.50;93.40
36416;DHT22;22447;44.530;18.620;2022-12-18T08:34:55;8.30;84.90
36416;DHT22;22447;44.530;18.620;2022-12-18T08:37:21;9.20;80.80
36416;DHT22;22447;44.530;18.620;2022-12-18T08:39:47;9.70;73.00
36416;DHT22;22447;44.530;18.620;2022-12-18T08:42:13;10.40;71.40
36416;DHT22;22447;44.530;18.620;2022-12-18T08:44:57;11.00;67.30
36416;DHT22;22447;44.530;18.620;2022-12-18T08:47:23;11.20;63.60
36416;DHT22;22447;44.530;18.620;2022-12-18T08:49:51;11.60;65.10
36416;DHT22;22447;44.530;18.620;2022-12-18T08:52:17;11.80;61.60
36416;DHT22;22447;44.530;18.620;2022-12-18T08:54:43;12.10;61.70
36416;DHT22;22447;44.530;18.620;2022-12-18T08:57:09;12.90;58.70
36416;DHT22;22447;44.530;18.620;2022-12-18T08:59:35;12.10;57.80
36416;DHT22;22447;44.530;18.620;2022-12-18T09:02:01;12.30;57.20
36416;DHT22;22447;44.530;18.620;2022-12-18T09:04:27;12.50;58.40
36416;DHT22;22447;44.530;18.620;2022-12-18T09:06:56;12.50;57.20
36416;DHT22;22447;44.530;18.620;2022-12-18T09:09:22;12.00;55.80
36416;DHT22;22447;44.530;18.620;2022-12-18T09:11:47;12.00;56.40
36416;DHT22;22447;44.530;18.620;2022-12-18T09:14:13;12.00;55.70
36416;DHT22;22447;44.530;18.620;2022-12-18T09:16:39;10.50;57.50
36416;DHT22;22447;44.530;18.620;2022-12-18T09:19:05;10.20;61.00
36416;DHT22;22447;44.530;18.620;2022-12-18T09:21:34;10.50;62.30
36416;DHT22;22447;44.530;18.620;2022-12-18T09:24:03;10.90;59.20
36416;DHT22;22447;44.530;18.620;2022-12-18T09:26:29;11.60;58.90
36416;DHT22;22447;44.530;18.620;2022-12-18T09:28:55;12.30;57.90
36416;DHT22;22447;44.530;18.620;2022-12-18T09:31:23;13.00;53.30
36416;DHT22;22447;44.530;18.620;2022-12-18T09:33:49;12.30;53.40
36416;DHT22;22447;44.530;18.620;2022-12-18T09:36:16;12.30;55.30
36416;DHT22;22447;44.530;18.620;2022-12-18T09:38:43;12.30;54.60
36416;DHT22;22447;44.530;18.620;2022-12-18T09:46:58;12.80;53.30
36416;DHT22;22447;44.530;18.620;2022-12-18T09:49:28;13.60;50.60
36416;DHT22;22447;44.530;18.620;2022-12-18T09:52:26;14.10;50.50
36416;DHT22;22447;44.530;18.620;2022-12-18T09:57:29;14.10;48.80
36416;DHT22;22447;44.530;18.620;2022-12-18T10:00:04;14.20;48.60
36416;DHT22;22447;44.530;18.620;2022-12-18T10:02:37;14.00;46.30
36416;DHT22;22447;44.530;18.620;2022-12-18T10:05:14;13.30;47.40
36416;DHT22;22447;44.530;18.620;2022-12-18T10:13:09;11.30;50.30
36416;DHT22;22447;44.530;18.620;2022-12-18T10:20:54;10.30;53.10
36416;DHT22;22447;44.530;18.620;2022-12-18T10:23:28;10.50;53.90
36416;DHT22;22447;44.530;18.620;2022-12-18T10:26:05;10.00;54.50
36416;DHT22;22447;44.530;18.620;2022-12-18T10:28:33;9.50;57.50
36416;DHT22;22447;44.530;18.620;2022-12-18T10:31:05;9.50;55.10
36416;DHT22;22447;44.530;18.620;2022-12-18T10:33:33;9.20;56.00
36416;DHT22;22447;44.530;18.620;2022-12-18T10:36:00;8.60;59.40
36416;DHT22;22447;44.530;18.620;2022-12-18T10:38:30;7.80;59.50
36416;DHT22;22447;44.530;18.620;2022-12-18T10:40:59;8.20;60.90
36416;DHT22;22447;44.530;18.620;2022-12-18T10:48:37;7.80;64.50
36416;DHT22;22447;44.530;18.620;2022-12-18T10:51:06;8.20;63.90
36416;DHT22;22447;44.530;18.620;2022-12-18T10:53:34;8.40;63.90
36416;DHT22;22447;44.530;18.620;2022-12-18T10:56:02;8.60;60.00
36416;DHT22;22447;44.530;18.620;2022-12-18T10:58:31;8.60;59.70
36416;DHT22;22447;44.530;18.620;2022-12-18T11:01:10;8.50;61.10
36416;DHT22;22447;44.530;18.620;2022-12-18T11:03:40;8.40;60.60
36416;DHT22;22447;44.530;18.620;2022-12-18T11:06:14;8.00;61.40
36416;DHT22;22447;44.530;18.620;2022-12-18T11:08:42;7.90;63.40
36416;DHT22;22447;44.530;18.620;2022-12-18T11:11:35;8.10;62.40
36416;DHT22;22447;44.530;18.620;2022-12-18T11:14:18;8.70;59.80
36416;DHT22;22447;44.530;18.620;2022-12-18T11:16:47;9.60;59.40
36416;DHT22;22447;44.530;18.620;2022-12-18T11:21:59;10.70;55.40
36416;DHT22;22447;44.530;18.620;2022-12-18T11:24:34;11.80;54.30
36416;DHT22;22447;44.530;18.620;2022-12-18T11:27:03;11.50;52.20
36416;DHT22;22447;44.530;18.620;2022-12-18T11:35:15;13.40;48.30
36416;DHT22;22447;44.530;18.620;2022-12-18T11:37:47;13.60;48.30
36416;DHT22;22447;44.530;18.620;2022-12-18T11:40:19;13.50;50.80
36416;DHT22;22447;44.530;18.620;2022-12-18T11:42:51;14.30;45.90
36416;DHT22;22447;44.530;18.620;2022-12-18T11:45:34;14.80;44.70
36416;DHT22;22447;44.530;18.620;2022-12-18T11:48:21;13.70;43.90
36416;DHT22;22447;44.530;18.620;2022-12-18T11:53:14;14.30;44.50
36416;DHT22;22447;44.530;18.620;2022-12-18T11:58:51;13.80;45.20
36416;DHT22;22447;44.530;18.620;2022-12-18T12:04:44;13.10;44.90
36416;DHT22;22447;44.530;18.620;2022-12-18T12:18:32;14.30;42.90
36416;DHT22;22447;44.530;18.620;2022-12-18T12:21:17;12.50;44.60
36416;DHT22;22447;44.530;18.620;2022-12-18T12:34:20;13.10;45.60
36416;DHT22;22447;44.530;18.620;2022-12-18T12:39:51;13.30;46.20
36416;DHT22;22447;44.530;18.620;2022-12-18T12:42:47;13.50;45.80
36416;DHT22;22447;44.530;18.620;2022-12-18T12:48:47;13.40;47.50
36416;DHT22;22447;44.530;18.620;2022-12-18T12:51:32;13.80;46.20
36416;DHT22;22447;44.530;18.620;2022-12-18T12:54:00;13.50;48.00
36416;DHT22;22447;44.530;18.620;2022-12-18T13:04:27;13.40;46.00
36416;DHT22;22447;44.530;18.620;2022-12-18T13:07:20;12.90;46.40
36416;DHT22;22447;44.530;18.620;2022-12-18T13:10:12;12.00;48.90
36416;DHT22;22447;44.530;18.620;2022-12-18T13:23:29;11.80;49.70
36416;DHT22;22447;44.530;18.620;2022-12-18T13:33:43;10.50;52.90
36416;DHT22;22447;44.530;18.620;2022-12-18T13:41:46;11.40;52.70
36416;DHT22;22447;44.530;18.620;2022-12-18T13:44:32;10.70;54.00
36416;DHT22;22447;44.530;18.620;2022-12-18T13:46:59;10.60;54.10
36416;DHT22;22447;44.530;18.620;2022-12-18T13:49:39;11.40;51.60
36416;DHT22;22447;44.530;18.620;2022-12-18T13:52:24;10.90;53.10
36416;DHT22;22447;44.530;18.620;2022-12-18T13:54:56;11.30;52.80
36416;DHT22;22447;44.530;18.620;2022-12-18T14:00:23;11.90;50.90
36416;DHT22;22447;44.530;18.620;2022-12-18T14:02:53;11.40;52.30
36416;DHT22;22447;44.530;18.620;2022-12-18T14:05:29;11.50;52.00
36416;DHT22;22447;44.530;18.620;2022-12-18T14:08:06;11.70;50.80
36416;DHT22;22447;44.530;18.620;2022-12-18T14:10:34;11.70;51.20
36416;DHT22;22447;44.530;18.620;2022-12-18T14:13:06;12.00;50.30
36416;DHT22;22447;44.530;18.620;2022-12-18T14:15:40;11.30;50.30
36416;DHT22;22447;44.530;18.620;2022-12-18T14:18:25;11.10;51.80
36416;DHT22;22447;44.530;18.620;2022-12-18T14:20:54;11.00;51.60
36416;DHT22;22447;44.530;18.620;2022-12-18T14:25:55;10.80;52.30
36416;DHT22;22447;44.530;18.620;2022-12-18T14:28:20;10.50;53.00
36416;DHT22;22447;44.530;18.620;2022-12-18T14:30:48;9.80;54.50
36416;DHT22;22447;44.530;18.620;2022-12-18T14:33:21;8.80;57.60
36416;DHT22;22447;44.530;18.620;2022-12-18T14:35:55;8.40;59.20
36416;DHT22;22447;44.530;18.620;2022-12-18T14:38:30;8.50;59.90
36416;DHT22;22447;44.530;18.620;2022-12-18T14:41:04;8.10;60.80
36416;DHT22;22447;44.530;18.620;2022-12-18T14:43:38;8.20;60.10
36416;DHT22;22447;44.530;18.620;2022-12-18T14:46:29;7.90;61.70
36416;DHT22;22447;44.530;18.620;2022-12-18T14:48:55;7.30;63.90
36416;DHT22;22447;44.530;18.620;2022-12-18T14:51:23;6.70;67.40
36416;DHT22;22447;44.530;18.620;2022-12-18T14:56:34;5.80;70.50
36416;DHT22;22447;44.530;18.620;2022-12-18T14:59:19;5.50;72.10
36416;DHT22;22447;44.530;18.620;2022-12-18T15:02:08;5.40;73.80
36416;DHT22;22447;44.530;18.620;2022-12-18T15:04:38;5.10;75.00
36416;DHT22;22447;44.530;18.620;2022-12-18T15:09:39;4.50;77.50
36416;DHT22;22447;44.530;18.620;2022-12-18T15:26:12;3.50;83.50
36416;DHT22;22447;44.530;18.620;2022-12-18T15:28:55;3.40;84.10
36416;DHT22;22447;44.530;18.620;2022-12-18T15:31:32;3.40;84.30
36416;DHT22;22447;44.530;18.620;2022-12-18T15:36:38;3.20;86.10
36416;DHT22;22447;44.530;18.620;2022-12-18T15:39:04;2.90;87.60
36416;DHT22;22447;44.530;18.620;2022-12-18T15:41:32;2.90;88.80
36416;DHT22;22447;44.530;18.620;2022-12-18T15:44:03;2.70;89.10
36416;DHT22;22447;44.530;18.620;2022-12-18T15:46:43;2.60;90.20
36416;DHT22;22447;44.530;18.620;2022-12-18T15:49:09;2.70;90.70
36416;DHT22;22447;44.530;18.620;2022-12-18T15:51:36;2.60;91.20
36416;DHT22;22447;44.530;18.620;2022-12-18T15:54:05;2.40;92.00
36416;DHT22;22447;44.530;18.620;2022-12-18T15:56:31;2.40;93.10
36416;DHT22;22447;44.530;18.620;2022-12-18T15:59:18;2.20;93.90
36416;DHT22;22447;44.530;18.620;2022-12-18T16:01:47;2.10;95.10
36416;DHT22;22447;44.530;18.620;2022-12-18T16:04:15;2.10;95.70
36416;DHT22;22447;44.530;18.620;2022-12-18T16:06:42;2.10;96.10
36416;DHT22;22447;44.530;18.620;2022-12-18T16:09:08;2.10;96.90
36416;DHT22;22447;44.530;18.620;2022-12-18T16:11:35;2.00;97.50
36416;DHT22;22447;44.530;18.620;2022-12-18T16:14:30;1.80;98.40
36416;DHT22;22447;44.530;18.620;2022-12-18T16:17:03;1.80;99.30
36416;DHT22;22447;44.530;18.620;2022-12-18T16:19:30;1.90;99.70
36416;DHT22;22447;44.530;18.620;2022-12-18T16:21:58;1.90;99.90
36416;DHT22;22447;44.530;18.620;2022-12-18T16:24:30;2.00;99.90
36416;DHT22;22447;44.530;18.620;2022-12-18T16:26:58;2.00;99.90
36416;DHT22;22447;44.530;18.620;2022-12-18T16:29:26;2.00;99.90
36416;DHT22;22447;44.530;18.620;2022-12-18T16:31:56;2.00;99.90
36416;DHT22;22447;44.530;18.620;2022-12-18T16:34:34;2.00;99.90
36416;DHT22;22447;44.530;18.620;2022-12-18T16:37:02;2.00;99.90
36416;DHT22;22447;44.530;18.620;2022-12-18T16:39:29;1.90;99.90
36416;DHT22;22447;44.530;18.620;2022-12-18T16:41:56;1.90;99.90
36416;DHT22;22447;44.530;18.620;2022-12-18T16:44:22;1.90;99.90
36416;DHT22;22447;44.530;18.620;2022-12-18T16:46:48;1.70;99.90
36416;DHT22;22447;44.530;18.620;2022-12-18T16:49:15;1.50;99.90
36416;DHT22;22447;44.530;18.620;2022-12-18T16:51:42;1.50;99.90
36416;DHT22;22447;44.530;18.620;2022-12-18T16:54:08;1.50;99.90
36416;DHT22;22447;44.530;18.620;2022-12-18T16:56:35;1.40;99.90
36416;DHT22;22447;44.530;18.620;2022-12-18T16:59:02;1.50;99.90
36416;DHT22;22447;44.530;18.620;2022-12-18T17:01:29;1.50;99.90
36416;DHT22;22447;44.530;18.620;2022-12-18T17:03:59;1.40;99.90
36416;DHT22;22447;44.530;18.620;2022-12-18T17:06:35;1.20;99.90
36416;DHT22;22447;44.530;18.620;2022-12-18T17:09:05;1.10;99.90
36416;DHT22;22447;44.530;18.620;2022-12-18T17:11:33;1.00;99.90
36416;DHT22;22447;44.530;18.620;2022-12-18T17:14:09;1.00;99.90
36416;DHT22;22447;44.530;18.620;2022-12-18T17:16:36;1.00;99.90
36416;DHT22;22447;44.530;18.620;2022-12-18T17:19:02;0.90;99.90
36416;DHT22;22447;44.530;18.620;2022-12-18T17:21:28;0.60;99.90
36416;DHT22;22447;44.530;18.620;2022-12-18T17:23:54;0.60;99.90
36416;DHT22;22447;44.530;18.620;2022-12-18T17:26:19;0.50;99.90
36416;DHT22;22447;44.530;18.620;2022-12-18T17:28:45;0.50;99.90
36416;DHT22;22447;44.530;18.620;2022-12-18T17:31:15;0.50;99.90
36416;DHT22;22447;44.530;18.620;2022-12-18T17:33:42;0.40;99.90
36416;DHT22;22447;44.530;18.620;2022-12-18T17:36:08;0.30;99.90
36416;DHT22;22447;44.530;18.620;2022-12-18T17:38:35;0.30;99.90
36416;DHT22;22447;44.530;18.620;2022-12-18T17:41:05;0.30;99.90
36416;DHT22;22447;44.530;18.620;2022-12-18T17:43:32;0.20;99.90
36416;DHT22;22447;44.530;18.620;2022-12-18T17:46:04;0.20;99.90
36416;DHT22;22447;44.530;18.620;2022-12-18T17:48:31;0.20;99.90
36416;DHT22;22447;44.530;18.620;2022-12-18T17:51:02;0.20;99.90
36416;DHT22;22447;44.530;18.620;2022-12-18T17:53:28;0.20;99.90
36416;DHT22;22447;44.530;18.620;2022-12-18T17:55:55;0.20;99.90
36416;DHT22;22447;44.530;18.620;2022-12-18T17:58:22;0.20;99.90
36416;DHT22;22447;44.530;18.620;2022-12-18T18:00:48;0.10;99.90
36416;DHT22;22447;44.530;18.620;2022-12-18T18:03:14;0.10;99.90
36416;DHT22;22447;44.530;18.620;2022-12-18T18:05:40;0.10;99.90
36416;DHT22;22447;44.530;18.620;2022-12-18T18:08:07;0.00;99.90
36416;DHT22;22447;44.530;18.620;2022-12-18T18:10:37;0.10;99.90
36416;DHT22;22447;44.530;18.620;2022-12-18T18:13:04;0.10;99.90
36416;DHT22;22447;44.530;18.620;2022-12-18T18:15:56;0.00;99.90
36416;DHT22;22447;44.530;18.620;2022-12-18T18:18:23;-0.10;99.90
36416;DHT22;22447;44.530;18.620;2022-12-18T18:20:49;-0.10;99.90
36416;DHT22;22447;44.530;18.620;2022-12-18T18:23:15;-0.10;99.90
36416;DHT22;22447;44.530;18.620;2022-12-18T18:25:41;-0.10;99.90